createdAt,value
2023-01-13T00:00:27.110Z,9.50
2023-01-13T00:06:45.620Z,9.40
2023-01-13T00:13:04.284Z,9.40
2023-01-13T00:18:58.679Z,9.30
2023-01-13T00:24:53.183Z,9.20
2023-01-13T00:31:13.857Z,9.20
2023-01-13T00:37:32.261Z,9.30
2023-01-13T00:43:27.038Z,9.20
2023-01-13T00:49:21.545Z,9.10
2023-01-13T00:55:40.005Z,9.10
2023-01-13T01:01:59.467Z,9.20
2023-01-13T01:08:05.955Z,9.20
2023-01-13T01:14:02.298Z,9.10
2023-01-13T01:20:23.226Z,9.10
2023-01-13T01:26:41.991Z,9.10
2023-01-13T01:32:36.375Z,9.00
2023-01-13T01:38:30.906Z,9.00
2023-01-13T01:44:58.744Z,9.20
2023-01-13T01:51:17.118Z,9.20
2023-01-13T01:57:12.197Z,9.20
2023-01-13T02:03:19.676Z,9.10
2023-01-13T02:09:38.178Z,9.20
2023-01-13T02:16:02.684Z,9.10
2023-01-13T02:21:57.022Z,8.90
2023-01-13T02:28:19.539Z,8.70
2023-01-13T02:34:40.754Z,8.60
2023-01-13T02:41:24.605Z,8.50
2023-01-13T02:47:24.701Z,8.40
2023-01-13T02:53:37.683Z,8.40
2023-01-13T02:59:56.150Z,8.40
2023-01-13T03:06:20.641Z,8.40
2023-01-13T03:12:33.059Z,8.30
2023-01-13T03:18:49.401Z,8.20
2023-01-13T03:25:14.349Z,8.30
2023-01-13T03:31:34.315Z,8.40
2023-01-13T03:37:30.811Z,8.40
2023-01-13T03:43:47.817Z,8.40
2023-01-13T03:50:14.395Z,8.40
2023-01-13T03:56:39.945Z,8.50
2023-01-13T04:02:50.581Z,8.50
2023-01-13T04:09:02.703Z,8.60
2023-01-13T04:15:22.842Z,8.60
2023-01-13T04:21:41.357Z,8.80
2023-01-13T04:27:35.748Z,9.00
2023-01-13T04:33:30.191Z,9.20
2023-01-13T04:39:48.684Z,9.30
2023-01-13T04:46:07.050Z,9.50
2023-01-13T04:52:03.833Z,9.40
2023-01-13T04:58:08.597Z,9.20
2023-01-13T05:04:27.131Z,9.20
2023-01-13T05:10:45.510Z,9.20
2023-01-13T05:17:01.456Z,9.30
2023-01-13T05:23:14.592Z,9.30
2023-01-13T05:29:34.075Z,9.30
2023-01-13T05:35:52.455Z,9.30
2023-01-13T05:42:05.257Z,9.30
2023-01-13T05:47:59.712Z,9.30
2023-01-13T05:54:18.249Z,9.40
2023-01-13T06:00:36.755Z,9.50
2023-01-13T06:06:31.112Z,9.40
2023-01-13T06:12:37.578Z,9.50
2023-01-13T06:18:56.067Z,9.50
2023-01-13T06:25:33.388Z,9.60
2023-01-13T06:31:28.784Z,9.60
2023-01-13T06:37:26.686Z,9.60
2023-01-13T06:43:45.147Z,9.60
2023-01-13T06:50:03.689Z,9.60
2023-01-13T06:55:58.037Z,9.60
2023-01-13T07:01:52.688Z,9.60
2023-01-13T07:08:11.363Z,9.70
2023-01-13T07:15:05.000Z,9.70
2023-01-13T07:26:17.820Z,9.70
2023-01-13T07:32:13.301Z,9.80
2023-01-13T07:38:33.209Z,9.80
2023-01-13T07:44:51.593Z,9.90
2023-01-13T07:50:46.971Z,9.80
2023-01-13T07:56:41.457Z,9.70
2023-01-13T08:03:01.189Z,9.80
2023-01-13T08:09:21.595Z,9.70
2023-01-13T08:15:16.252Z,9.70
2023-01-13T08:21:12.694Z,9.70
2023-01-13T08:27:31.215Z,9.80
2023-01-13T08:33:49.605Z,9.80
2023-01-13T08:39:43.951Z,9.90
2023-01-13T08:45:38.475Z,10.10
2023-01-13T08:51:57.125Z,10.20
2023-01-13T08:58:16.373Z,10.20
2023-01-13T09:04:16.451Z,10.10
2023-01-13T09:10:12.503Z,9.90
2023-01-13T09:16:30.998Z,10.00
2023-01-13T09:22:49.395Z,10.00
2023-01-13T09:28:43.781Z,9.90
2023-01-13T09:34:56.718Z,10.00
2023-01-13T09:41:39.990Z,10.00
2023-01-13T09:48:07.592Z,10.00
2023-01-13T09:54:20.235Z,10.00
2023-01-13T10:00:22.298Z,10.10
2023-01-13T10:06:42.594Z,10.00
2023-01-13T10:13:16.217Z,10.00
2023-01-13T10:19:22.855Z,10.00
2023-01-13T10:25:33.710Z,10.00
2023-01-13T10:31:56.246Z,10.10
2023-01-13T10:38:18.126Z,10.10
2023-01-13T10:44:17.329Z,10.10
2023-01-13T10:50:11.793Z,10.20
2023-01-13T10:56:32.414Z,10.30
2023-01-13T11:03:03.586Z,10.40
2023-01-13T11:08:58.620Z,10.50
2023-01-13T11:14:53.098Z,10.50
2023-01-13T11:21:25.216Z,10.60
2023-01-13T11:27:44.569Z,10.50
2023-01-13T11:33:43.366Z,10.40
2023-01-13T11:40:16.368Z,10.50
2023-01-13T11:46:35.017Z,10.50
2023-01-13T11:52:56.598Z,10.40
2023-01-13T11:58:51.495Z,10.20
2023-01-13T12:05:18.420Z,10.20
2023-01-13T12:12:04.487Z,10.30
2023-01-13T12:18:32.744Z,10.20
2023-01-13T12:24:47.490Z,10.20
2023-01-13T12:31:00.307Z,10.20
2023-01-13T12:37:26.622Z,10.20
2023-01-13T12:44:05.515Z,10.20
2023-01-13T12:50:18.695Z,10.30
2023-01-13T12:56:28.205Z,10.20
2023-01-13T13:03:12.388Z,10.40
2023-01-13T13:09:32.244Z,10.50
2023-01-13T13:15:35.667Z,10.50
2023-01-13T13:22:12.769Z,10.60
2023-01-13T13:28:35.403Z,10.50
2023-01-13T13:35:03.188Z,10.50
2023-01-13T13:41:16.131Z,10.60
2023-01-13T13:47:10.653Z,10.60
2023-01-13T13:53:34.255Z,10.90
2023-01-13T13:59:56.035Z,11.10
2023-01-13T14:05:54.439Z,11.10
2023-01-13T14:12:24.682Z,11.00
2023-01-13T14:18:47.217Z,11.00
2023-01-13T14:25:27.920Z,11.00
2023-01-13T14:31:23.386Z,11.00
2023-01-13T14:37:34.149Z,10.90
2023-01-13T14:43:54.728Z,10.90
2023-01-13T14:50:13.295Z,10.90
2023-01-13T14:56:28.689Z,10.80
2023-01-13T15:02:30.876Z,10.70
2023-01-13T15:08:50.219Z,10.70
2023-01-13T15:15:25.202Z,10.70
2023-01-13T15:21:19.640Z,10.60
2023-01-13T15:27:22.357Z,10.60
2023-01-13T15:33:41.543Z,10.50
2023-01-13T15:39:59.866Z,10.50
2023-01-13T15:46:12.902Z,10.50
2023-01-13T15:52:26.833Z,10.50
2023-01-13T15:58:45.317Z,10.60
2023-01-13T16:05:04.288Z,10.50
2023-01-13T16:10:58.658Z,10.40
2023-01-13T16:16:53.065Z,10.40
2023-01-13T16:23:12.883Z,10.40
2023-01-13T16:29:31.241Z,10.50
2023-01-13T16:35:25.609Z,10.40
2023-01-13T16:41:20.683Z,10.40
2023-01-13T16:47:39.900Z,10.50
2023-01-13T16:53:58.268Z,10.50
2023-01-13T16:59:52.642Z,10.40
2023-01-13T17:05:47.691Z,10.20
2023-01-13T17:12:06.314Z,10.20
2023-01-13T17:18:24.647Z,10.20
2023-01-13T17:24:19.093Z,10.10
2023-01-13T17:30:16.463Z,10.10
2023-01-13T17:36:34.968Z,10.10
2023-01-13T17:42:53.352Z,10.10
2023-01-13T17:48:47.720Z,10.00
2023-01-13T17:54:43.900Z,10.00
2023-01-13T18:01:19.476Z,10.10
2023-01-13T18:07:37.912Z,10.20
2023-01-13T18:13:33.447Z,10.40
2023-01-13T18:19:46.376Z,10.50
2023-01-13T18:26:52.992Z,10.60
2023-01-13T18:33:11.417Z,10.60
2023-01-13T18:39:06.781Z,10.60
2023-01-13T18:45:01.265Z,10.50
2023-01-13T18:51:19.865Z,10.50
2023-01-13T18:57:40.051Z,10.60
2023-01-13T19:03:34.432Z,10.40
2023-01-13T19:09:30.942Z,10.40
2023-01-13T19:15:49.488Z,10.40
2023-01-13T19:22:09.078Z,10.40
2023-01-13T19:28:03.534Z,10.30
2023-01-13T19:33:58.000Z,10.30
2023-01-13T19:40:16.664Z,10.20
2023-01-13T19:46:35.122Z,10.30
2023-01-13T19:52:30.179Z,10.10
2023-01-13T19:58:26.279Z,10.10
2023-01-13T20:04:45.462Z,10.00
2023-01-13T20:11:21.849Z,9.90
2023-01-13T20:17:16.968Z,9.80
2023-01-13T20:23:12.465Z,9.90
2023-01-13T20:29:31.129Z,9.90
2023-01-13T20:35:57.279Z,10.00
2023-01-13T20:42:10.192Z,9.90
2023-01-13T20:48:04.870Z,9.80
2023-01-13T20:54:23.505Z,9.80
2023-01-13T21:00:41.947Z,9.80
2023-01-13T21:06:36.376Z,9.70
2023-01-13T21:12:49.580Z,9.60
2023-01-13T21:19:08.106Z,9.70
2023-01-13T21:25:26.500Z,9.70
2023-01-13T21:31:20.930Z,9.70
2023-01-13T21:37:16.151Z,9.70
2023-01-13T21:43:53.844Z,9.70
2023-01-13T21:50:12.558Z,9.80
2023-01-13T21:56:07.970Z,9.90
2023-01-13T22:02:25.209Z,9.80
2023-01-13T22:08:43.890Z,9.80
2023-01-13T22:15:02.515Z,9.70
2023-01-13T22:20:59.929Z,9.70
2023-01-13T22:26:54.423Z,9.60
2023-01-13T22:33:12.926Z,9.50
2023-01-13T22:39:31.336Z,9.30
2023-01-13T22:45:25.723Z,9.00
2023-01-13T22:51:20.203Z,8.90
2023-01-13T22:57:47.626Z,8.80
2023-01-13T23:04:06.801Z,8.80
2023-01-13T23:10:02.653Z,8.70
2023-01-13T23:16:03.397Z,8.50
2023-01-13T23:22:21.923Z,8.50
2023-01-13T23:28:40.469Z,8.40
2023-01-13T23:34:34.851Z,8.20
2023-01-13T23:40:29.323Z,8.20
2023-01-13T23:46:47.793Z,8.20
2023-01-13T23:53:06.140Z,8.10
2023-01-13T23:59:00.539Z,8.00
